Time;durP1;ratioP1;P1;durP2;ratioP2;P2;SDS_P1;SDS_P2;PMS_P1;PMS_P2;Temp;Humidity;BMP_temperature;BMP_pressure;BME280_temperature;BME280_humidity;BME280_pressure;Samples;Min_cycle;Max_cycle;Signal;HPM_P1;HPM_P2
2023/01/24 00:02:12;;;;;;;24.35;16.95;;;4.80;99.90;;;;;;4973397;28;20235;-79
2023/01/24 00:04:43;;;;;;;25.05;14.90;;;4.80;99.90;;;;;;4973991;28;20562;-81
2023/01/24 00:07:10;;;;;;;23.10;14.68;;;4.80;99.90;;;;;;4988209;28;20273;-79
2023/01/24 00:10:10;;;;;;;18.77;14.32;;;4.80;99.90;;;;;;5072525;28;20239;-79
2023/01/24 00:12:43;;;;;;;19.83;13.90;;;4.70;99.90;;;;;;5055997;28;20217;-79
2023/01/24 00:15:11;;;;;;;19.45;13.38;;;4.70;99.90;;;;;;5053305;28;20228;-79
2023/01/24 00:17:38;;;;;;;18.80;14.70;;;4.70;99.90;;;;;;5055470;28;20708;-78
2023/01/24 00:20:08;;;;;;;28.85;17.48;;;4.70;99.90;;;;;;5036791;28;20566;-78
2023/01/24 00:22:41;;;;;;;20.30;15.15;;;4.70;99.90;;;;;;5050901;28;20225;-81
2023/01/24 00:25:09;;;;;;;25.27;15.70;;;4.70;99.90;;;;;;5041720;28;20502;-81
2023/01/24 00:27:38;;;;;;;21.27;15.10;;;4.60;99.90;;;;;;5059340;28;20221;-80
2023/01/24 00:30:15;;;;;;;17.13;14.18;;;4.60;99.90;;;;;;5060041;28;20225;-80
2023/01/24 00:32:42;;;;;;;19.58;14.02;;;4.60;99.90;;;;;;5046633;28;20235;-80
2023/01/24 00:35:13;;;;;;;19.42;14.07;;;4.60;99.90;;;;;;5057429;28;20228;-81
2023/01/24 00:37:40;;;;;;;18.67;14.32;;;4.60;99.90;;;;;;5048489;28;20221;-79
2023/01/24 00:40:11;;;;;;;17.52;14.25;;;4.60;99.90;;;;;;5047711;28;20228;-78
2023/01/24 00:42:38;;;;;;;27.90;15.32;;;4.60;99.90;;;;;;5058085;28;20225;-82
2023/01/24 00:45:14;;;;;;;20.40;14.15;;;4.60;99.90;;;;;;5061633;28;20216;-80
2023/01/24 00:47:42;;;;;;;19.13;14.32;;;4.60;99.90;;;;;;5055461;28;20311;-81
2023/01/24 00:50:12;;;;;;;17.65;12.80;;;4.60;99.90;;;;;;5061005;28;20685;-80
2023/01/24 00:52:47;;;;;;;14.82;12.95;;;4.60;99.90;;;;;;5064810;28;20216;-78
2023/01/24 00:55:15;;;;;;;18.45;12.57;;;4.60;99.90;;;;;;5065457;28;20243;-80
2023/01/24 00:57:43;;;;;;;16.45;12.55;;;4.50;99.90;;;;;;5056581;28;20287;-80
2023/01/24 01:00:11;;;;;;;18.45;15.05;;;4.50;99.90;;;;;;5068599;28;20258;-79
2023/01/24 01:02:38;;;;;;;20.30;13.82;;;4.40;99.90;;;;;;5067111;28;20225;-80
2023/01/24 01:05:06;;;;;;;21.15;13.23;;;4.50;99.90;;;;;;5058118;28;20225;-81
2023/01/24 01:07:34;;;;;;;17.77;12.57;;;4.40;99.90;;;;;;5049708;28;20226;-81
2023/01/24 01:10:01;;;;;;;18.88;13.73;;;4.40;99.90;;;;;;5061568;28;20225;-80
2023/01/24 01:12:28;;;;;;;15.70;12.50;;;4.40;99.90;;;;;;5086424;28;20228;-78
2023/01/24 01:14:56;;;;;;;15.82;11.32;;;4.40;99.90;;;;;;5088624;28;20228;-81
2023/01/24 01:17:28;;;;;;;14.40;11.75;;;4.40;99.90;;;;;;5087220;28;20262;-79
2023/01/24 01:19:55;;;;;;;18.08;13.50;;;4.40;99.90;;;;;;5089255;28;20228;-79
2023/01/24 01:22:38;;;;;;;12.88;11.50;;;4.40;99.90;;;;;;5088727;28;20239;-82
2023/01/24 01:25:10;;;;;;;16.55;13.88;;;4.40;99.90;;;;;;5059737;28;20692;-81
2023/01/24 01:27:37;;;;;;;15.52;11.45;;;4.50;99.90;;;;;;5056657;28;20224;-80
2023/01/24 01:30:06;;;;;;;18.20;12.32;;;4.50;99.90;;;;;;5073491;28;20224;-79
2023/01/24 01:32:33;;;;;;;21.55;13.52;;;4.50;99.90;;;;;;5063812;28;20238;-78
2023/01/24 01:35:07;;;;;;;18.45;12.18;;;4.50;99.90;;;;;;5055868;28;20232;-79
2023/01/24 01:37:34;;;;;;;14.70;10.30;;;4.50;99.90;;;;;;5068063;28;20215;-78
2023/01/24 01:40:05;;;;;;;13.98;11.18;;;4.40;99.90;;;;;;5069636;28;20226;-82
2023/01/24 01:42:45;;;;;;;13.35;10.57;;;4.40;99.90;;;;;;5068259;28;20223;-82
2023/01/24 01:45:35;;;;;;;13.43;11.32;;;4.50;99.90;;;;;;5063984;28;20223;-80
2023/01/24 01:48:11;;;;;;;12.52;10.45;;;4.50;99.90;;;;;;5051448;28;20661;-82
2023/01/24 01:50:41;;;;;;;13.55;10.55;;;4.50;99.90;;;;;;5068459;28;20220;-80
2023/01/24 01:53:10;;;;;;;12.80;10.23;;;4.50;99.90;;;;;;5063560;28;20354;-81
2023/01/24 01:55:41;;;;;;;14.32;9.60;;;4.40;99.90;;;;;;5067716;28;20592;-80
2023/01/24 01:58:10;;;;;;;13.40;10.32;;;4.40;99.90;;;;;;5070973;28;20215;-82
2023/01/24 02:00:37;;;;;;;14.40;10.30;;;4.30;99.90;;;;;;5067933;28;20293;-80
2023/01/24 02:05:55;;;;;;;11.00;10.02;;;4.30;99.90;;;;;;5072594;28;20226;-79
2023/01/24 02:08:23;;;;;;;13.40;10.57;;;4.30;99.90;;;;;;5059460;28;20258;-82
2023/01/24 02:13:43;;;;;;;12.27;9.77;;;4.30;99.90;;;;;;5051839;28;20282;-80
2023/01/24 02:16:09;;;;;;;11.40;9.60;;;4.30;99.90;;;;;;5052890;28;20315;-79
2023/01/24 02:18:39;;;;;;;12.10;8.27;;;4.20;99.90;;;;;;5041765;28;20271;-80
2023/01/24 02:21:10;;;;;;;16.08;9.93;;;4.20;99.90;;;;;;5037544;28;20555;-80
2023/01/24 02:23:52;;;;;;;11.88;9.65;;;4.30;99.90;;;;;;5051486;28;20286;-80
2023/01/24 02:26:25;;;;;;;14.45;10.25;;;4.30;99.90;;;;;;5052165;28;20693;-81
2023/01/24 02:28:57;;;;;;;11.68;9.70;;;4.30;99.90;;;;;;5052972;28;20278;-81
2023/01/24 02:31:26;;;;;;;12.48;8.15;;;4.20;99.90;;;;;;5043665;28;20670;-80
2023/01/24 02:33:53;;;;;;;9.60;8.32;;;4.20;99.90;;;;;;5052979;28;20254;-82
2023/01/24 02:36:25;;;;;;;12.02;8.45;;;4.20;99.90;;;;;;5053666;28;20228;-82
2023/01/24 02:38:58;;;;;;;9.20;8.40;;;4.20;99.90;;;;;;5051910;28;20258;-81
2023/01/24 02:41:35;;;;;;;9.77;8.25;;;4.20;99.90;;;;;;5053068;28;20593;-78
2023/01/24 02:44:05;;;;;;;9.70;8.65;;;4.20;99.90;;;;;;5052939;28;20221;-80
2023/01/24 02:46:38;;;;;;;13.27;9.40;;;4.20;99.90;;;;;;5053170;28;20531;-80
2023/01/24 02:49:08;;;;;;;9.80;8.00;;;4.20;99.90;;;;;;5053102;28;20221;-79
2023/01/24 02:54:19;;;;;;;9.55;8.45;;;4.10;99.90;;;;;;5022827;28;20224;-83
2023/01/24 02:59:36;;;;;;;9.40;7.60;;;4.20;99.90;;;;;;5045951;28;20689;-82
2023/01/24 03:02:05;;;;;;;9.45;7.75;;;4.20;99.90;;;;;;5052489;28;20224;-82
2023/01/24 03:04:35;;;;;;;9.45;8.52;;;4.20;99.90;;;;;;5051956;28;20278;-82
2023/01/24 03:07:04;;;;;;;8.35;7.40;;;4.10;99.90;;;;;;5052168;28;20647;-80
2023/01/24 03:09:35;;;;;;;10.98;7.45;;;4.10;99.90;;;;;;5051635;28;20228;-82
2023/01/24 03:36:54;;;;;;;11.00;8.77;;;4.10;99.90;;;;;;5056145;28;20273;-81
2023/01/24 03:42:07;;;;;;;9.38;8.38;;;4.10;99.90;;;;;;5055017;28;20573;-79
2023/01/24 03:44:38;;;;;;;9.68;8.07;;;4.10;99.90;;;;;;5056218;28;20369;-78
2023/01/24 03:47:06;;;;;;;10.90;8.65;;;4.00;99.90;;;;;;5055057;28;20221;-78
2023/01/24 03:52:27;;;;;;;8.23;7.43;;;4.00;99.90;;;;;;5054689;28;20691;-81
2023/01/24 03:54:54;;;;;;;10.05;9.05;;;4.00;99.90;;;;;;5054650;28;20303;-79
2023/01/24 03:57:22;;;;;;;8.10;7.00;;;4.00;99.90;;;;;;5046317;28;20552;-81
2023/01/24 03:59:51;;;;;;;10.00;7.72;;;4.00;99.90;;;;;;5056405;28;20216;-81
2023/01/24 04:02:22;;;;;;;9.77;8.73;;;4.00;99.90;;;;;;5054917;28;20224;-78
2023/01/24 04:07:33;;;;;;;7.32;6.38;;;4.00;99.90;;;;;;5055888;28;20227;-82
2023/01/24 04:10:04;;;;;;;9.23;7.78;;;4.00;99.90;;;;;;5045027;28;20240;-81
2023/01/24 04:12:31;;;;;;;9.40;7.13;;;4.00;99.90;;;;;;5055463;28;20229;-78
2023/01/24 04:14:59;;;;;;;8.73;7.82;;;4.10;99.90;;;;;;5055257;28;20236;-79
2023/01/24 04:17:26;;;;;;;9.52;8.63;;;4.00;99.90;;;;;;5055364;28;20558;-82
2023/01/24 04:19:53;;;;;;;8.90;8.00;;;4.00;99.90;;;;;;5054071;28;20242;-81
2023/01/24 04:22:21;;;;;;;9.65;8.75;;;4.00;99.90;;;;;;5054938;28;20293;-81
2023/01/24 04:24:48;;;;;;;9.50;8.57;;;4.00;99.90;;;;;;5053912;28;20308;-78
2023/01/24 04:27:15;;;;;;;9.13;8.27;;;3.90;99.90;;;;;;5054580;28;20303;-81
2023/01/24 04:29:42;;;;;;;8.75;7.93;;;3.90;99.90;;;;;;5055028;28;20221;-82
2023/01/24 04:32:11;;;;;;;9.38;8.40;;;3.90;99.90;;;;;;5054496;28;20229;-81
2023/01/24 04:34:38;;;;;;;10.18;8.77;;;3.90;99.90;;;;;;5053544;28;20286;-81
2023/01/24 04:37:05;;;;;;;12.23;8.40;;;3.90;99.90;;;;;;5043112;28;20224;-81
2023/01/24 04:39:35;;;;;;;8.50;7.45;;;3.90;99.90;;;;;;5053428;28;20239;-81
2023/01/24 04:42:02;;;;;;;11.02;8.50;;;3.80;99.90;;;;;;5053557;28;20225;-79
2023/01/24 04:44:29;;;;;;;9.73;8.15;;;3.90;99.90;;;;;;5054186;28;20282;-81
2023/01/24 04:46:56;;;;;;;8.32;7.50;;;3.80;99.90;;;;;;5052630;28;20278;-81
2023/01/24 04:49:24;;;;;;;10.35;8.95;;;3.80;99.90;;;;;;5054061;28;20575;-79
2023/01/24 04:51:52;;;;;;;10.85;9.13;;;3.80;99.90;;;;;;5052481;28;20220;-79
2023/01/24 04:54:19;;;;;;;12.23;8.43;;;3.80;99.90;;;;;;5053976;28;20224;-80
2023/01/24 04:56:47;;;;;;;11.82;8.57;;;3.80;99.90;;;;;;5053915;28;20315;-79
2023/01/24 04:59:14;;;;;;;11.77;8.98;;;3.80;99.90;;;;;;5053133;28;20285;-78
2023/01/24 05:01:42;;;;;;;9.73;8.02;;;3.80;99.90;;;;;;5053814;28;20216;-79
2023/01/24 05:04:09;;;;;;;11.05;8.63;;;3.80;99.90;;;;;;5054269;28;20225;-81
2023/01/24 05:06:37;;;;;;;10.88;8.77;;;3.80;99.90;;;;;;5053499;28;20221;-81
2023/01/24 05:09:05;;;;;;;13.75;7.95;;;3.80;99.90;;;;;;5053155;28;20553;-81
2023/01/24 05:11:32;;;;;;;10.23;8.70;;;3.80;99.90;;;;;;5044425;28;20225;-82
2023/01/24 05:14:00;;;;;;;11.70;8.85;;;3.80;99.90;;;;;;5053564;28;20232;-78
2023/01/24 05:16:28;;;;;;;9.35;8.45;;;3.90;99.90;;;;;;5053335;28;20221;-78
2023/01/24 05:18:55;;;;;;;10.20;9.27;;;3.90;99.90;;;;;;5053778;28;20216;-82
2023/01/24 05:21:23;;;;;;;10.90;8.70;;;3.90;99.90;;;;;;5053617;28;20235;-79
2023/01/24 05:23:52;;;;;;;11.60;8.05;;;3.90;99.90;;;;;;5054421;28;20232;-79
2023/01/24 05:26:21;;;;;;;9.70;8.63;;;4.00;99.90;;;;;;5052754;28;20665;-79
2023/01/24 05:28:57;;;;;;;10.45;9.15;;;4.00;99.90;;;;;;5053939;28;20220;-79
2023/01/24 05:31:27;;;;;;;10.00;8.60;;;4.00;99.90;;;;;;5025140;28;20220;-82
2023/01/24 05:33:55;;;;;;;10.52;8.90;;;4.00;99.90;;;;;;5053346;28;20294;-81
2023/01/24 05:36:26;;;;;;;10.48;9.50;;;4.00;99.90;;;;;;5053208;28;20369;-81
2023/01/24 05:38:55;;;;;;;9.40;8.40;;;4.00;99.90;;;;;;5052866;28;20558;-82
2023/01/24 05:41:22;;;;;;;9.38;8.40;;;4.00;99.90;;;;;;5052936;28;20708;-81
2023/01/24 05:43:50;;;;;;;10.50;9.40;;;4.00;99.90;;;;;;5053069;28;20703;-79
2023/01/24 05:46:20;;;;;;;9.40;7.93;;;4.00;99.90;;;;;;5041620;28;20225;-79
2023/01/24 05:48:48;;;;;;;10.02;9.02;;;4.00;99.90;;;;;;5049241;28;20662;-82
2023/01/24 05:51:20;;;;;;;11.27;8.65;;;4.00;99.90;;;;;;5044988;28;20232;-79
2023/01/24 05:53:47;;;;;;;10.32;9.30;;;4.00;99.90;;;;;;5053680;28;20217;-79
2023/01/24 05:56:18;;;;;;;9.95;9.02;;;4.00;99.90;;;;;;5028179;28;20242;-81
2023/01/24 05:58:46;;;;;;;8.32;7.53;;;4.00;99.90;;;;;;5052741;28;20216;-81
2023/01/24 06:01:19;;;;;;;12.25;8.93;;;4.00;99.90;;;;;;5043549;28;20255;-81
2023/01/24 06:03:49;;;;;;;10.43;8.52;;;4.00;99.90;;;;;;5052409;28;20287;-79
2023/01/24 06:06:18;;;;;;;9.65;8.30;;;4.00;99.90;;;;;;5045344;28;20696;-81
2023/01/24 06:08:45;;;;;;;10.27;8.38;;;4.00;99.90;;;;;;5052525;28;20796;-81
2023/01/24 06:11:15;;;;;;;11.90;9.32;;;4.00;99.90;;;;;;5052748;28;20319;-82
2023/01/24 06:13:43;;;;;;;9.75;8.73;;;4.00;99.90;;;;;;5052374;28;20243;-82
2023/01/24 06:16:12;;;;;;;10.00;8.98;;;4.00;99.90;;;;;;5053345;28;20252;-79
2023/01/24 06:18:40;;;;;;;11.25;8.80;;;4.00;99.90;;;;;;5052158;28;20278;-79
2023/01/24 06:21:13;;;;;;;12.40;10.20;;;4.00;99.90;;;;;;5051935;28;20224;-79
2023/01/24 06:23:40;;;;;;;9.55;8.45;;;4.00;99.90;;;;;;5040069;28;20224;-80
2023/01/24 06:26:10;;;;;;;11.75;10.50;;;4.00;99.90;;;;;;5053659;28;20296;-79
2023/01/24 06:28:39;;;;;;;12.48;11.05;;;4.00;99.90;;;;;;5052293;28;20224;-79
2023/01/24 06:31:15;;;;;;;10.45;9.38;;;4.00;99.90;;;;;;5052179;28;20221;-80
2023/01/24 06:33:56;;;;;;;11.15;9.23;;;4.00;99.90;;;;;;5052829;28;20235;-82
2023/01/24 06:36:48;;;;;;;12.95;8.90;;;4.00;99.90;;;;;;5053009;28;20233;-81
2023/01/24 06:39:20;;;;;;;13.05;10.25;;;4.00;99.90;;;;;;5044388;28;20274;-81
2023/01/24 06:41:50;;;;;;;14.35;10.80;;;4.00;99.90;;;;;;5051719;28;20260;-78
2023/01/24 06:44:19;;;;;;;12.82;9.25;;;4.00;99.90;;;;;;5051978;28;20255;-82
2023/01/24 06:49:27;;;;;;;14.63;11.55;;;4.00;99.90;;;;;;4975629;28;20684;-82
2023/01/24 06:51:54;;;;;;;14.10;10.63;;;4.00;99.90;;;;;;5032077;28;20235;-80
2023/01/24 06:54:23;;;;;;;13.93;11.63;;;4.00;99.90;;;;;;5052486;28;20579;-80
2023/01/24 06:56:50;;;;;;;21.08;12.70;;;4.00;99.90;;;;;;5052443;28;20224;-80
2023/01/24 06:59:19;;;;;;;18.15;12.65;;;4.00;99.90;;;;;;5050553;28;20229;-82
2023/01/24 07:01:46;;;;;;;15.60;11.50;;;4.00;99.90;;;;;;5052220;28;20251;-82
2023/01/24 07:04:14;;;;;;;19.08;11.95;;;4.00;99.90;;;;;;5051851;28;20585;-80
2023/01/24 07:09:26;;;;;;;22.92;12.80;;;4.10;99.90;;;;;;5028951;28;20318;-80
2023/01/24 07:11:57;;;;;;;20.27;14.07;;;4.10;99.90;;;;;;5055588;28;20294;-80
2023/01/24 07:14:27;;;;;;;22.05;11.95;;;4.10;99.90;;;;;;5055696;28;20278;-80
2023/01/24 07:16:55;;;;;;;20.55;13.57;;;4.10;99.90;;;;;;5055833;28;20303;-80
2023/01/24 07:19:25;;;;;;;28.38;13.48;;;4.00;99.90;;;;;;5056561;28;20271;-80
2023/01/24 07:21:53;;;;;;;20.80;13.30;;;4.00;99.90;;;;;;5057055;28;20263;-82
2023/01/24 07:24:37;;;;;;;22.02;11.25;;;4.00;99.90;;;;;;5056913;28;20232;-82
2023/01/24 07:27:04;;;;;;;23.35;12.18;;;4.00;99.90;;;;;;5059882;28;20224;-82
2023/01/24 07:29:33;;;;;;;18.88;13.35;;;3.90;99.90;;;;;;5064946;28;20580;-80
2023/01/24 07:32:00;;;;;;;25.20;13.88;;;3.90;99.90;;;;;;5066805;28;20228;-79
2023/01/24 07:34:30;;;;;;;17.95;12.30;;;3.90;99.90;;;;;;5039015;28;20224;-81
2023/01/24 07:36:57;;;;;;;21.88;13.38;;;3.90;99.90;;;;;;5069488;28;20255;-81
2023/01/24 07:39:24;;;;;;;16.70;12.18;;;4.00;99.90;;;;;;5073019;28;20236;-80
2023/01/24 07:41:51;;;;;;;25.83;13.82;;;4.00;99.90;;;;;;5075211;28;20231;-78
2023/01/24 07:44:18;;;;;;;21.15;15.02;;;4.00;99.90;;;;;;5064037;28;20232;-78
2023/01/24 07:46:49;;;;;;;25.05;14.20;;;4.00;99.90;;;;;;5075780;28;20232;-80
2023/01/24 07:49:19;;;;;;;18.77;12.90;;;4.10;99.90;;;;;;5073769;28;20303;-78
2023/01/24 07:51:48;;;;;;;18.80;13.13;;;4.10;99.90;;;;;;5071739;28;20235;-79
2023/01/24 07:54:17;;;;;;;21.77;11.80;;;4.00;99.90;;;;;;5073695;28;20225;-78
2023/01/24 07:56:44;;;;;;;22.73;11.85;;;4.10;99.90;;;;;;5073245;28;20213;-78
2023/01/24 07:59:11;;;;;;;16.20;11.40;;;4.10;99.90;;;;;;5074121;28;20286;-78
2023/01/24 08:01:43;;;;;;;24.40;14.10;;;4.20;99.90;;;;;;5073035;28;20224;-78
2023/01/24 08:04:14;;;;;;;19.77;13.00;;;4.10;99.90;;;;;;5063735;28;20233;-78
2023/01/24 08:07:16;;;;;;;17.05;11.20;;;4.20;99.90;;;;;;5057823;28;20216;-78
2023/01/24 08:09:35;;;;;;;24.80;13.05;;;4.20;99.90;;;;;;5044211;28;20319;-78
2023/01/24 08:12:07;;;;;;;17.58;11.15;;;4.20;99.90;;;;;;5055500;28;20311;-78
2023/01/24 08:14:34;;;;;;;23.30;12.20;;;4.20;99.90;;;;;;5055222;28;20527;-79
2023/01/24 08:17:02;;;;;;;16.40;11.80;;;4.20;99.90;;;;;;5055352;28;20235;-78
2023/01/24 08:19:32;;;;;;;16.70;11.85;;;4.20;99.90;;;;;;5054972;28;20232;-79
2023/01/24 08:21:59;;;;;;;14.63;11.23;;;4.20;99.90;;;;;;5053530;28;20638;-81
2023/01/24 08:24:26;;;;;;;18.92;12.38;;;4.20;99.90;;;;;;5042332;28;20243;-78
2023/01/24 08:26:53;;;;;;;16.77;12.32;;;4.20;99.90;;;;;;5052229;28;20224;-81
2023/01/24 08:29:24;;;;;;;18.50;11.52;;;4.30;99.90;;;;;;5053969;28;20255;-78
2023/01/24 08:31:50;;;;;;;18.70;12.65;;;4.20;99.90;;;;;;5055390;28;20631;-81
2023/01/24 08:34:18;;;;;;;18.95;12.10;;;4.20;99.90;;;;;;5054616;28;20235;-78
2023/01/24 08:36:46;;;;;;;21.70;12.30;;;4.30;99.90;;;;;;5045839;28;20221;-77
2023/01/24 08:39:16;;;;;;;25.00;12.15;;;4.20;99.90;;;;;;5059984;28;20223;-78
2023/01/24 08:41:45;;;;;;;21.65;13.82;;;4.20;99.90;;;;;;5074332;28;20224;-80
2023/01/24 08:44:13;;;;;;;19.35;11.68;;;4.20;99.90;;;;;;5074579;28;20262;-81
2023/01/24 08:46:41;;;;;;;21.25;12.85;;;4.20;99.90;;;;;;5069357;28;20231;-81
2023/01/24 08:49:14;;;;;;;28.35;14.73;;;4.20;99.90;;;;;;5073069;28;20248;-80
2023/01/24 08:51:41;;;;;;;25.83;13.77;;;4.20;99.90;;;;;;5056971;28;20257;-80
2023/01/24 08:54:17;;;;;;;27.55;15.10;;;4.30;99.90;;;;;;5064187;28;20216;-80
2023/01/24 08:56:48;;;;;;;37.50;17.38;;;4.20;99.90;;;;;;5058887;28;20702;-80
2023/01/24 08:59:15;;;;;;;24.00;14.32;;;4.20;99.90;;;;;;5046360;28;20255;-78
2023/01/24 09:01:42;;;;;;;27.63;14.48;;;4.30;99.90;;;;;;5063511;28;20282;-77
2023/01/24 09:04:09;;;;;;;29.65;15.43;;;4.20;99.90;;;;;;5065642;28;20220;-80
2023/01/24 09:06:37;;;;;;;25.67;15.10;;;4.20;99.90;;;;;;5064093;28;20262;-80
2023/01/24 09:09:05;;;;;;;28.95;15.23;;;4.20;99.90;;;;;;5054892;28;20554;-78
2023/01/24 09:11:33;;;;;;;27.90;15.93;;;4.30;99.90;;;;;;5053042;28;20235;-80
2023/01/24 09:14:00;;;;;;;31.95;17.67;;;4.20;99.90;;;;;;5053993;28;20248;-78
2023/01/24 09:16:28;;;;;;;36.75;19.05;;;4.30;99.90;;;;;;5051606;28;20229;-79
2023/01/24 09:18:55;;;;;;;28.00;15.65;;;4.30;99.90;;;;;;5077761;28;20248;-78
2023/01/24 09:21:25;;;;;;;33.63;17.58;;;4.30;99.90;;;;;;5062914;28;20678;-81
2023/01/24 09:23:54;;;;;;;44.63;18.33;;;4.30;99.90;;;;;;5044384;28;20240;-78
2023/01/24 09:26:21;;;;;;;32.83;16.27;;;4.30;99.90;;;;;;5053459;28;20658;-78
2023/01/24 09:28:50;;;;;;;29.08;16.13;;;4.40;99.90;;;;;;5053513;28;20290;-78
2023/01/24 09:31:17;;;;;;;46.85;20.00;;;4.40;99.90;;;;;;5054025;28;20232;-80
2023/01/24 09:33:44;;;;;;;38.45;18.70;;;4.50;99.90;;;;;;5052998;28;20311;-81
2023/01/24 09:36:12;;;;;;;33.60;18.95;;;4.50;99.90;;;;;;5049093;28;20526;-80
2023/01/24 09:38:44;;;;;;;38.90;19.75;;;4.50;99.90;;;;;;5065805;28;20228;-78
2023/01/24 09:41:22;;;;;;;37.00;18.17;;;4.50;99.90;;;;;;5063525;28;20236;-81
2023/01/24 09:43:56;;;;;;;42.33;19.42;;;4.50;99.90;;;;;;5059313;28;20283;-81
2023/01/24 09:46:32;;;;;;;41.90;21.85;;;4.50;99.90;;;;;;5065938;28;20618;-80
2023/01/24 09:49:25;;;;;;;39.15;19.80;;;4.60;99.90;;;;;;5067818;28;20240;-81
2023/01/24 09:51:54;;;;;;;44.63;19.58;;;4.50;99.90;;;;;;5050973;28;20216;-80
2023/01/24 09:54:31;;;;;;;41.17;20.92;;;4.60;99.90;;;;;;5053475;28;20236;-79
2023/01/24 09:56:58;;;;;;;45.50;21.08;;;4.60;99.90;;;;;;5058157;28;20285;-78
2023/01/24 09:59:37;;;;;;;49.25;20.75;;;4.70;99.90;;;;;;5052995;28;20228;-81
2023/01/24 10:02:16;;;;;;;51.20;23.50;;;4.70;99.90;;;;;;5041991;28;20224;-78
2023/01/24 10:04:44;;;;;;;46.33;22.80;;;4.70;99.90;;;;;;5052781;28;20673;-78
2023/01/24 10:07:38;;;;;;;46.30;23.90;;;4.80;99.90;;;;;;5060829;28;20279;-78
2023/01/24 10:10:20;;;;;;;47.90;24.30;;;4.80;99.90;;;;;;5052889;28;20252;-78
2023/01/24 10:12:58;;;;;;;50.28;23.25;;;4.80;99.90;;;;;;5052015;28;20225;-79
2023/01/24 10:15:38;;;;;;;50.30;23.33;;;4.80;99.90;;;;;;5053061;28;20278;-78
2023/01/24 10:18:39;;;;;;;50.40;24.95;;;4.80;99.90;;;;;;5060348;28;20223;-78
2023/01/24 10:21:22;;;;;;;57.83;23.83;;;4.80;99.90;;;;;;5064444;28;20231;-79
2023/01/24 10:23:53;;;;;;;56.50;24.17;;;4.80;99.90;;;;;;5052066;28;20303;-80
2023/01/24 10:26:22;;;;;;;51.80;24.42;;;4.80;99.90;;;;;;5051895;28;20696;-79
2023/01/24 10:28:52;;;;;;;52.75;26.05;;;4.80;99.90;;;;;;5051155;28;20229;-79
2023/01/24 10:31:26;;;;;;;57.83;24.52;;;4.80;99.90;;;;;;5067567;28;20609;-80
2023/01/24 10:34:19;;;;;;;63.70;25.75;;;4.80;99.90;;;;;;5047298;28;20224;-81
2023/01/24 10:36:51;;;;;;;43.65;23.05;;;4.80;99.90;;;;;;5066130;28;20311;-81
2023/01/24 10:39:18;;;;;;;56.58;25.58;;;4.80;99.90;;;;;;5070163;28;20233;-81
2023/01/24 10:41:48;;;;;;;46.75;22.55;;;4.80;99.90;;;;;;5072259;28;20220;-81
2023/01/24 10:44:24;;;;;;;52.03;24.98;;;4.80;99.90;;;;;;5066369;28;20595;-81
2023/01/24 10:47:30;;;;;;;50.55;25.75;;;4.90;99.90;;;;;;5075859;28;20264;-81
2023/01/24 10:50:01;;;;;;;56.85;25.77;;;4.90;99.90;;;;;;5055396;28;20677;-79
2023/01/24 10:52:29;;;;;;;46.45;24.75;;;4.90;99.90;;;;;;5056336;28;20232;-79
2023/01/24 10:54:57;;;;;;;49.55;25.15;;;5.00;99.90;;;;;;5055528;28;20228;-81
2023/01/24 10:57:42;;;;;;;49.35;22.38;;;4.90;99.90;;;;;;5075303;28;20243;-80
2023/01/24 11:00:37;;;;;;;51.00;25.17;;;5.00;99.90;;;;;;5064117;28;20337;-80
2023/01/24 11:03:06;;;;;;;52.20;21.70;;;5.10;99.90;;;;;;5061370;28;20232;-81
2023/01/24 11:05:46;;;;;;;47.10;24.05;;;5.10;99.90;;;;;;5063118;28;20672;-78
2023/01/24 11:08:24;;;;;;;48.05;23.63;;;5.10;99.90;;;;;;5051466;28;20224;-79
2023/01/24 11:11:21;;;;;;;40.47;22.95;;;5.10;99.90;;;;;;5044600;28;20227;-79
2023/01/24 11:13:55;;;;;;;52.85;24.92;;;5.20;99.90;;;;;;5062020;28;20243;-79
2023/01/24 11:16:33;;;;;;;54.95;24.73;;;5.10;99.90;;;;;;5061062;28;20243;-79
2023/01/24 11:19:10;;;;;;;40.47;22.23;;;5.20;99.90;;;;;;5063328;28;20219;-81
2023/01/24 11:21:52;;;;;;;43.35;21.67;;;5.20;99.90;;;;;;5074574;28;20223;-81
2023/01/24 11:24:21;;;;;;;47.70;21.42;;;5.20;99.90;;;;;;5076118;28;20771;-79
2023/01/24 11:26:55;;;;;;;46.17;23.00;;;5.30;99.90;;;;;;5074384;28;20235;-79
2023/01/24 11:29:48;;;;;;;40.35;20.42;;;5.30;99.90;;;;;;5074603;28;20235;-79
2023/01/24 11:32:31;;;;;;;46.25;21.85;;;5.30;99.90;;;;;;5046150;28;20231;-78
2023/01/24 11:35:09;;;;;;;45.08;22.90;;;5.30;99.90;;;;;;5056214;28;20224;-80
2023/01/24 11:38:03;;;;;;;46.25;22.98;;;5.30;99.90;;;;;;5075291;28;20220;-81
2023/01/24 11:40:39;;;;;;;44.53;20.65;;;5.30;99.90;;;;;;5054447;28;20260;-81
2023/01/24 11:43:32;;;;;;;42.83;20.70;;;5.30;99.90;;;;;;5045247;28;20601;-79
2023/01/24 11:46:25;;;;;;;38.92;20.55;;;5.30;99.90;;;;;;5045112;28;20227;-81
2023/01/24 11:49:17;;;;;;;45.58;20.63;;;5.30;99.90;;;;;;5054404;28;20642;-80
2023/01/24 11:51:55;;;;;;;36.03;20.83;;;5.30;99.90;;;;;;5055740;28;20293;-81
2023/01/24 11:54:41;;;;;;;37.55;21.50;;;5.30;99.90;;;;;;5045957;28;20652;-81
2023/01/24 11:57:20;;;;;;;48.28;21.38;;;5.30;99.90;;;;;;5042229;28;20216;-79
2023/01/24 12:00:12;;;;;;;37.30;21.30;;;5.30;99.90;;;;;;5055060;28;20255;-79
2023/01/24 12:03:13;;;;;;;35.47;19.25;;;5.20;99.90;;;;;;5055537;28;20240;-79
2023/01/24 12:05:55;;;;;;;40.53;20.30;;;5.30;99.90;;;;;;5063494;28;20281;-80
2023/01/24 12:08:41;;;;;;;37.97;20.98;;;5.30;99.90;;;;;;5075521;28;20334;-81
2023/01/24 12:11:18;;;;;;;37.60;20.83;;;5.30;99.90;;;;;;5075328;28;20242;-80
2023/01/24 12:13:51;;;;;;;45.15;22.98;;;5.30;99.90;;;;;;5060136;28;20294;-82
2023/01/24 12:16:32;;;;;;;34.83;20.48;;;5.30;99.90;;;;;;5053831;28;20323;-80
2023/01/24 12:19:27;;;;;;;38.95;20.92;;;5.30;99.90;;;;;;5075247;28;20675;-82
2023/01/24 12:22:00;;;;;;;37.47;20.65;;;5.40;99.90;;;;;;5074944;28;20269;-81
2023/01/24 12:24:33;;;;;;;32.22;19.75;;;5.40;99.90;;;;;;5074750;28;20235;-80
2023/01/24 12:27:06;;;;;;;33.42;19.98;;;5.40;99.90;;;;;;5054431;28;20229;-78
2023/01/24 12:29:40;;;;;;;40.28;22.85;;;5.40;99.90;;;;;;5052758;28;20312;-79
2023/01/24 12:32:15;;;;;;;46.85;24.00;;;5.40;99.90;;;;;;5053679;28;20229;-80
2023/01/24 12:34:51;;;;;;;41.42;22.20;;;5.40;99.90;;;;;;5044490;28;20379;-78
2023/01/24 12:37:30;;;;;;;39.53;21.80;;;5.50;99.90;;;;;;5054044;28;20228;-78
2023/01/24 12:40:05;;;;;;;40.10;21.60;;;5.40;99.90;;;;;;5054206;28;20232;-80
2023/01/24 12:43:11;;;;;;;42.40;20.63;;;5.40;99.90;;;;;;5040983;28;20248;-80
2023/01/24 12:45:46;;;;;;;34.78;20.13;;;5.40;99.90;;;;;;5053443;28;20223;-80
2023/01/24 12:48:20;;;;;;;36.92;19.48;;;5.40;99.90;;;;;;5053815;28;20227;-78
2023/01/24 12:50:54;;;;;;;35.15;19.20;;;5.40;99.90;;;;;;5045620;28;20240;-78
2023/01/24 13:03:47;;;;;;;;;;;;;;;;;;;;;
2023/01/24 13:20:09;;;;;;;35.70;18.58;;;5.60;99.90;;;;;;4815993;29;20319;-82
2023/01/24 13:22:48;;;;;;;31.67;19.63;;;5.60;99.90;;;;;;4852044;29;20628;-79
2023/01/24 13:25:53;;;;;;;33.80;18.48;;;5.60;99.90;;;;;;5011087;28;20584;-82
2023/01/24 13:28:30;;;;;;;47.10;19.60;;;5.60;99.90;;;;;;5012960;28;20250;-81
2023/01/24 13:31:13;;;;;;;36.95;19.63;;;5.60;99.90;;;;;;5002567;28;20317;-81
2023/01/24 13:33:49;;;;;;;44.13;20.50;;;5.60;99.90;;;;;;5000415;28;20225;-79
2023/01/24 13:36:23;;;;;;;36.45;20.25;;;5.50;99.90;;;;;;5012718;28;20234;-79
2023/01/24 13:38:51;;;;;;;36.75;20.23;;;5.50;99.90;;;;;;5017700;28;20229;-80
2023/01/24 13:41:33;;;;;;;34.92;20.42;;;5.50;99.90;;;;;;5067968;28;20222;-79
2023/01/24 13:44:02;;;;;;;29.05;18.75;;;5.40;99.90;;;;;;5063691;28;20219;-81
2023/01/24 13:47:05;;;;;;;33.85;18.70;;;5.40;99.90;;;;;;5075636;28;20224;-79
2023/01/24 13:49:45;;;;;;;34.15;19.75;;;5.50;99.90;;;;;;5077880;28;20288;-81
2023/01/24 13:52:39;;;;;;;38.80;20.10;;;5.40;99.90;;;;;;5071631;28;20227;-78
2023/01/24 13:55:52;;;;;;;30.48;17.90;;;5.40;99.90;;;;;;5086471;28;20223;-81
2023/01/24 13:58:22;;;;;;;37.80;19.80;;;5.40;99.90;;;;;;5084302;28;20216;-81
2023/01/24 14:00:53;;;;;;;33.97;18.40;;;5.30;99.90;;;;;;5079461;28;20602;-80
2023/01/24 14:03:26;;;;;;;30.77;19.02;;;5.30;99.90;;;;;;5079073;28;20252;-80
2023/01/24 14:06:05;;;;;;;41.67;19.65;;;5.30;99.90;;;;;;5046666;28;20209;-79
2023/01/24 14:08:41;;;;;;;27.52;16.85;;;5.30;99.90;;;;;;4968826;28;20228;-81
2023/01/24 14:12:04;;;;;;;37.58;19.70;;;5.30;99.90;;;;;;5058162;28;20292;-80
2023/01/24 14:15:05;;;;;;;28.63;15.63;;;5.30;99.90;;;;;;5035868;28;20218;-78
2023/01/24 14:17:53;;;;;;;30.20;19.10;;;5.30;99.90;;;;;;4981301;28;20268;-79
2023/01/24 14:20:24;;;;;;;31.33;18.65;;;5.20;99.90;;;;;;5002911;28;20882;-80
2023/01/24 14:22:59;;;;;;;33.45;18.50;;;5.30;99.90;;;;;;4966979;28;20231;-82
2023/01/24 14:25:42;;;;;;;29.77;16.90;;;5.30;99.90;;;;;;5038047;28;20242;-79
2023/01/24 14:28:39;;;;;;;32.85;18.15;;;5.30;99.90;;;;;;5045515;28;20310;-81